Terminal Aerodrome Forecast
Issued by NWS

Home | Current Version | Previous Version | Text Only | Print | Product List | Glossary On
Versions: 1 2 3 4 5 6 7 8 9 10 11 12 13 14 15 16 17
000
FTUS41 KCAR 201700
TAFPQI
TAF
KPQI 201726Z 2018/2118 19013G21KT P6SM VCSH OVC040
     FM210300 19011KT P6SM VCSH OVC020
     FM211100 19011KT P6SM SCT008
     FM211300 19011KT P6SM BKN025
     FM211500 19014KT P6SM BKN040
      AMD LTD TO CLD VIS AND WIND=

USA.gov is the U.S. government's official web portal to all federal, state and local government web resources and services.